createdAt,value
2023-05-22T00:01:03.205Z,16.63
2023-05-22T00:03:33.406Z,16.58
2023-05-22T00:06:03.341Z,14.57
2023-05-22T00:08:36.161Z,14.77
2023-05-22T00:11:04.686Z,16.40
2023-05-22T00:13:32.901Z,15.00
2023-05-22T00:16:01.738Z,15.95
2023-05-22T00:18:30.114Z,16.13
2023-05-22T00:20:59.406Z,23.50
2023-05-22T00:23:31.328Z,13.80
2023-05-22T00:26:01.507Z,13.73
2023-05-22T00:28:30.636Z,13.27
2023-05-22T00:30:59.557Z,16.45
2023-05-22T00:33:28.182Z,14.93
2023-05-22T00:35:56.637Z,15.50
2023-05-22T00:38:33.408Z,13.93
2023-05-22T00:41:04.648Z,14.23
2023-05-22T00:43:32.954Z,17.50
2023-05-22T00:46:01.722Z,16.30
2023-05-22T00:48:32.226Z,15.52
2023-05-22T00:51:02.163Z,13.60
2023-05-22T00:53:31.997Z,15.30
2023-05-22T00:56:02.437Z,18.33
2023-05-22T00:58:31.346Z,20.70
2023-05-22T01:01:01.184Z,16.75
2023-05-22T01:03:30.292Z,17.67
2023-05-22T01:05:58.704Z,18.02
2023-05-22T01:08:27.253Z,19.00
2023-05-22T01:11:03.198Z,14.40
2023-05-22T01:13:44.474Z,16.20
2023-05-22T01:16:31.523Z,16.08
2023-05-22T01:19:07.422Z,15.98
2023-05-22T01:21:40.326Z,17.70
2023-05-22T01:24:42.200Z,14.32
2023-05-22T01:27:44.722Z,19.30
2023-05-22T01:30:29.570Z,15.25
2023-05-22T01:33:01.918Z,14.55
2023-05-22T01:35:32.281Z,15.73
2023-05-22T01:38:01.920Z,13.60
2023-05-22T01:40:31.008Z,14.00
2023-05-22T01:43:00.300Z,19.33
2023-05-22T01:45:28.992Z,14.60
2023-05-22T01:47:58.884Z,13.57
2023-05-22T01:50:27.999Z,12.68
2023-05-22T01:53:04.856Z,16.33
2023-05-22T01:55:40.509Z,12.43
2023-05-22T01:58:16.920Z,14.68
2023-05-22T02:00:48.209Z,17.42
2023-05-22T02:03:21.811Z,14.07
2023-05-22T02:05:55.378Z,14.20
2023-05-22T02:08:25.280Z,12.77
2023-05-22T02:10:54.852Z,13.48
2023-05-22T02:13:23.956Z,12.73
2023-05-22T02:15:53.168Z,14.18
2023-05-22T02:18:29.566Z,14.35
2023-05-22T02:21:00.909Z,16.27
2023-05-22T02:23:29.938Z,16.17
2023-05-22T02:25:58.606Z,13.93
2023-05-22T02:28:28.281Z,12.77
2023-05-22T02:30:56.776Z,17.55
2023-05-22T02:33:27.284Z,13.88
2023-05-22T02:35:56.245Z,13.65
2023-05-22T02:38:29.221Z,13.55
2023-05-22T02:41:00.156Z,12.23
2023-05-22T02:43:28.581Z,15.70
2023-05-22T02:45:57.345Z,14.25
2023-05-22T02:48:29.681Z,11.75
2023-05-22T02:50:58.123Z,11.65
2023-05-22T02:53:27.670Z,14.23
2023-05-22T02:55:59.190Z,14.13
2023-05-22T02:58:27.778Z,13.73
2023-05-22T03:00:57.168Z,17.38
2023-05-22T03:03:29.769Z,11.98
2023-05-22T03:05:59.155Z,14.32
2023-05-22T03:08:28.454Z,13.52
2023-05-22T03:10:57.861Z,14.23
2023-05-22T03:13:26.366Z,11.15
2023-05-22T03:15:54.951Z,14.80
2023-05-22T03:18:25.313Z,14.18
2023-05-22T03:20:57.134Z,12.43
2023-05-22T03:28:29.557Z,16.55
2023-05-22T03:30:59.008Z,12.77
2023-05-22T03:33:27.577Z,13.98
2023-05-22T03:36:04.121Z,13.57
2023-05-22T03:38:32.879Z,11.93
2023-05-22T03:41:02.464Z,14.52
2023-05-22T03:43:30.926Z,13.93
2023-05-22T03:46:00.303Z,15.32
2023-05-22T03:48:28.826Z,12.50
2023-05-22T03:50:58.486Z,14.07
2023-05-22T03:53:27.668Z,17.25
2023-05-22T03:55:57.929Z,15.07
2023-05-22T03:58:26.895Z,13.55
2023-05-22T04:00:59.701Z,11.30
2023-05-22T04:03:30.077Z,14.82
2023-05-22T04:06:06.049Z,11.60
2023-05-22T04:08:34.811Z,13.93
2023-05-22T04:11:05.437Z,11.55
2023-05-22T04:13:35.593Z,14.10
2023-05-22T04:16:04.686Z,14.85
2023-05-22T04:18:36.367Z,11.40
2023-05-22T04:21:10.089Z,12.00
2023-05-22T04:23:39.724Z,14.95
2023-05-22T04:26:08.814Z,14.05
2023-05-22T04:28:37.404Z,11.52
2023-05-22T04:31:07.673Z,9.85
2023-05-22T04:33:36.535Z,15.82
2023-05-22T04:36:09.464Z,10.80
2023-05-22T04:38:41.470Z,11.70
2023-05-22T04:41:10.655Z,11.20
2023-05-22T04:43:39.393Z,16.20
2023-05-22T04:46:10.597Z,17.13
2023-05-22T04:48:41.647Z,13.13
2023-05-22T04:51:14.352Z,14.15
2023-05-22T04:53:49.344Z,12.57
2023-05-22T04:56:31.888Z,16.77
2023-05-22T04:59:05.679Z,11.20
2023-05-22T05:01:38.433Z,12.88
2023-05-22T05:04:08.522Z,10.35
2023-05-22T05:06:39.885Z,15.10
2023-05-22T05:09:11.205Z,12.23
2023-05-22T05:11:40.703Z,11.73
2023-05-22T05:14:11.163Z,11.70
2023-05-22T05:16:40.446Z,12.52
2023-05-22T05:19:09.374Z,11.93
2023-05-22T05:21:42.273Z,15.45
2023-05-22T05:24:13.096Z,16.00
2023-05-22T05:26:41.690Z,13.05
2023-05-22T05:29:11.061Z,14.68
2023-05-22T05:31:41.499Z,13.70
2023-05-22T05:34:10.669Z,13.48
2023-05-22T05:36:42.623Z,14.25
2023-05-22T05:39:15.011Z,12.38
2023-05-22T05:41:45.471Z,11.05
2023-05-22T05:44:17.111Z,12.65
2023-05-22T05:46:46.994Z,14.18
2023-05-22T05:49:18.295Z,13.60
2023-05-22T05:51:48.706Z,12.73
2023-05-22T05:54:23.108Z,15.23
2023-05-22T05:56:51.957Z,16.75
2023-05-22T05:59:22.285Z,9.93
2023-05-22T06:01:53.815Z,14.55
2023-05-22T06:04:23.817Z,13.13
2023-05-22T06:06:53.803Z,12.77
2023-05-22T06:09:22.425Z,14.27
2023-05-22T06:11:51.700Z,12.30
2023-05-22T06:14:20.234Z,12.75
2023-05-22T06:16:48.709Z,13.63
2023-05-22T06:19:17.134Z,13.82
2023-05-22T06:21:45.552Z,14.82
2023-05-22T06:24:16.241Z,13.30
2023-05-22T06:26:45.576Z,11.32
2023-05-22T06:29:13.970Z,13.25
2023-05-22T06:31:42.839Z,11.15
2023-05-22T06:34:11.359Z,9.85
2023-05-22T06:36:40.318Z,15.20
2023-05-22T06:39:08.940Z,10.98
2023-05-22T06:41:39.975Z,12.68
2023-05-22T06:44:08.375Z,12.83
2023-05-22T06:46:36.791Z,12.93
2023-05-22T06:49:05.424Z,13.80
2023-05-22T06:51:34.212Z,13.32
2023-05-22T06:54:05.333Z,11.32
2023-05-22T06:56:34.105Z,12.48
2023-05-22T06:59:06.061Z,13.77
2023-05-22T07:01:35.268Z,9.98
2023-05-22T07:04:05.284Z,12.93
2023-05-22T07:06:39.606Z,15.95
2023-05-22T07:09:12.765Z,10.65
2023-05-22T07:11:43.028Z,16.55
2023-05-22T07:14:13.664Z,10.75
2023-05-22T07:16:45.293Z,12.40
2023-05-22T07:19:14.090Z,12.35
2023-05-22T07:21:43.364Z,11.57
2023-05-22T07:24:12.187Z,11.43
2023-05-22T07:26:46.462Z,12.50
2023-05-22T07:29:17.653Z,8.98
2023-05-22T07:31:47.119Z,15.15
2023-05-22T07:34:17.367Z,14.90
2023-05-22T07:36:45.578Z,10.23
2023-05-22T07:39:14.272Z,11.32
2023-05-22T07:41:50.174Z,8.70
2023-05-22T07:44:21.467Z,13.45
2023-05-22T07:46:50.806Z,11.95
2023-05-22T07:49:20.404Z,11.55
2023-05-22T07:51:49.266Z,10.82
2023-05-22T07:54:19.344Z,13.63
2023-05-22T07:56:48.079Z,13.50
2023-05-22T07:59:19.876Z,13.00
2023-05-22T08:04:19.187Z,15.63
2023-05-22T08:06:47.685Z,17.17
2023-05-22T08:09:16.099Z,12.50
2023-05-22T08:11:45.942Z,14.55
2023-05-22T08:14:14.263Z,10.68
2023-05-22T08:16:42.530Z,12.85
2023-05-22T08:19:12.397Z,14.10
2023-05-22T08:21:40.953Z,12.30
2023-05-22T08:24:09.484Z,11.38
2023-05-22T08:26:38.941Z,10.10
2023-05-22T08:29:07.514Z,11.23
2023-05-22T08:31:36.116Z,14.90
2023-05-22T08:34:06.382Z,11.77
2023-05-22T08:36:40.250Z,10.10
2023-05-22T08:39:08.960Z,13.85
2023-05-22T08:41:37.472Z,11.05
2023-05-22T08:44:06.572Z,9.52
2023-05-22T08:46:38.187Z,12.93
2023-05-22T08:49:10.876Z,9.88
2023-05-22T08:51:43.488Z,13.45
2023-05-22T08:54:12.416Z,11.70
2023-05-22T08:56:53.038Z,12.35
2023-05-22T08:59:25.572Z,10.75
2023-05-22T09:01:55.032Z,14.93
2023-05-22T09:04:24.483Z,9.45
2023-05-22T09:06:55.357Z,10.95
2023-05-22T09:09:24.003Z,12.07
2023-05-22T09:11:52.642Z,12.38
2023-05-22T09:14:21.387Z,14.73
2023-05-22T09:16:56.868Z,13.38
2023-05-22T09:19:25.883Z,10.57
2023-05-22T09:22:05.231Z,10.05
2023-05-22T09:24:40.271Z,13.38
2023-05-22T09:27:10.710Z,13.90
2023-05-22T09:29:50.371Z,14.25
2023-05-22T09:32:21.580Z,10.85
2023-05-22T09:34:55.312Z,12.38
2023-05-22T09:37:24.980Z,10.43
2023-05-22T09:39:59.120Z,13.88
2023-05-22T09:42:30.290Z,14.52
2023-05-22T09:45:06.318Z,10.82
2023-05-22T09:47:35.371Z,14.60
2023-05-22T09:50:10.375Z,12.63
2023-05-22T09:52:40.389Z,10.68
2023-05-22T09:55:14.505Z,11.07
2023-05-22T09:57:44.972Z,10.77
2023-05-22T10:00:22.000Z,13.02
2023-05-22T10:02:53.311Z,13.35
2023-05-22T10:05:26.114Z,11.68
2023-05-22T10:07:58.187Z,11.07
2023-05-22T10:10:28.392Z,9.55
2023-05-22T10:13:01.416Z,11.05
2023-05-22T10:15:30.374Z,11.82
2023-05-22T10:18:00.140Z,12.73
2023-05-22T10:20:30.131Z,12.05
2023-05-22T10:23:09.898Z,10.90
2023-05-22T10:25:43.199Z,13.93
2023-05-22T10:28:23.076Z,11.13
2023-05-22T10:30:59.597Z,14.77
2023-05-22T10:33:33.402Z,11.00
2023-05-22T10:36:05.963Z,14.98
2023-05-22T10:38:52.045Z,12.52
2023-05-22T10:41:27.885Z,11.90
2023-05-22T10:43:59.890Z,13.88
2023-05-22T10:46:35.472Z,12.32
2023-05-22T10:49:06.091Z,13.27
2023-05-22T10:51:36.441Z,12.87
2023-05-22T10:54:06.525Z,9.27
2023-05-22T10:56:36.409Z,18.40
2023-05-22T10:59:08.238Z,12.52
2023-05-22T11:01:38.729Z,11.15
2023-05-22T11:04:16.257Z,12.60
2023-05-22T11:06:46.905Z,10.13
2023-05-22T11:09:33.794Z,12.73
2023-05-22T11:12:21.670Z,11.18
2023-05-22T11:14:51.972Z,13.23
2023-05-22T11:17:26.380Z,14.15
2023-05-22T11:20:03.555Z,15.60
2023-05-22T11:22:34.405Z,11.68
2023-05-22T11:25:10.808Z,12.38
2023-05-22T11:27:43.729Z,17.02
2023-05-22T11:30:14.155Z,11.27
2023-05-22T11:32:46.489Z,18.27
2023-05-22T11:35:20.276Z,12.82
2023-05-22T11:37:51.484Z,11.57
2023-05-22T11:40:24.487Z,13.55
2023-05-22T11:42:56.845Z,12.85
2023-05-22T11:45:28.048Z,12.73
2023-05-22T11:47:57.461Z,14.73
2023-05-22T11:50:41.129Z,10.13
2023-05-22T11:53:13.126Z,10.50
2023-05-22T11:55:43.829Z,13.13
2023-05-22T11:58:12.038Z,12.25
2023-05-22T12:00:42.726Z,13.23
2023-05-22T12:03:12.292Z,12.55
2023-05-22T12:05:41.321Z,12.90
2023-05-22T12:08:12.455Z,9.48
2023-05-22T12:10:49.412Z,10.80
2023-05-22T12:13:25.896Z,14.32
2023-05-22T12:15:56.253Z,13.48
2023-05-22T12:18:24.929Z,14.47
2023-05-22T12:21:00.023Z,9.90
2023-05-22T12:23:31.684Z,12.73
2023-05-22T12:26:10.241Z,9.70
2023-05-22T12:28:40.874Z,10.98
2023-05-22T12:31:13.349Z,12.38
2023-05-22T12:33:42.063Z,11.02
2023-05-22T12:36:11.665Z,12.85
2023-05-22T12:38:42.472Z,12.60
2023-05-22T12:41:12.429Z,10.07
2023-05-22T12:43:41.984Z,9.65
2023-05-22T12:46:11.829Z,12.32
2023-05-22T12:48:40.173Z,12.73
2023-05-22T12:51:09.685Z,11.93
2023-05-22T12:53:39.021Z,12.85
2023-05-22T12:56:08.380Z,12.43
2023-05-22T12:58:38.660Z,15.23
2023-05-22T13:01:11.978Z,11.90
2023-05-22T13:03:40.840Z,13.10
2023-05-22T13:06:12.655Z,13.43
2023-05-22T13:08:43.474Z,11.30
2023-05-22T13:11:13.452Z,12.15
2023-05-22T13:13:43.396Z,18.13
2023-05-22T13:16:13.265Z,13.93
2023-05-22T13:18:42.148Z,14.18
2023-05-22T13:21:12.663Z,14.10
2023-05-22T13:23:42.058Z,12.10
2023-05-22T13:26:11.101Z,13.50
2023-05-22T13:28:40.009Z,14.52
2023-05-22T13:31:11.792Z,15.88
2023-05-22T13:33:43.993Z,14.68
2023-05-22T13:36:13.132Z,10.50
2023-05-22T13:38:44.640Z,13.30
2023-05-22T13:41:15.554Z,13.85
2023-05-22T13:43:45.570Z,12.15
2023-05-22T13:46:17.854Z,13.48
2023-05-22T13:48:47.497Z,13.50
2023-05-22T13:51:16.593Z,14.85
2023-05-22T13:53:46.361Z,16.05
2023-05-22T13:56:19.015Z,11.37
2023-05-22T13:58:48.904Z,11.43
2023-05-22T14:01:21.382Z,12.95
2023-05-22T14:03:52.283Z,13.45
2023-05-22T14:06:21.479Z,14.38
2023-05-22T14:08:50.392Z,14.43
2023-05-22T14:11:19.962Z,10.73
2023-05-22T14:13:50.736Z,13.13
2023-05-22T14:16:20.727Z,13.52
2023-05-22T14:18:49.288Z,11.10
2023-05-22T14:21:19.488Z,13.23
2023-05-22T14:23:48.261Z,16.10
2023-05-22T14:26:18.777Z,16.02
2023-05-22T14:28:47.855Z,14.35
2023-05-22T14:31:16.746Z,10.88
2023-05-22T14:33:47.204Z,12.40
2023-05-22T14:36:17.980Z,11.40
2023-05-22T14:38:48.445Z,9.75
2023-05-22T14:41:17.363Z,12.52
2023-05-22T14:43:45.946Z,15.13
2023-05-22T14:46:15.037Z,24.38
2023-05-22T14:48:43.731Z,15.27
2023-05-22T14:51:13.989Z,12.75
2023-05-22T14:53:45.169Z,12.52
2023-05-22T14:56:14.901Z,9.75
2023-05-22T14:58:44.973Z,11.80
2023-05-22T15:01:14.494Z,12.63
2023-05-22T15:03:43.415Z,13.25
2023-05-22T15:06:13.284Z,13.52
2023-05-22T15:08:41.515Z,12.25
2023-05-22T15:11:10.773Z,11.93
2023-05-22T15:13:39.518Z,12.57
2023-05-22T15:16:08.009Z,13.73
2023-05-22T15:18:37.722Z,13.30
2023-05-22T15:21:08.091Z,11.90
2023-05-22T15:23:39.090Z,10.50
2023-05-22T15:26:09.406Z,9.55
2023-05-22T15:28:41.575Z,13.25
2023-05-22T15:31:12.741Z,13.82
2023-05-22T15:33:42.964Z,10.85
2023-05-22T15:36:13.334Z,13.20
2023-05-22T15:38:44.219Z,13.98
2023-05-22T15:41:17.517Z,11.70
2023-05-22T15:43:47.274Z,15.30
2023-05-22T15:46:16.856Z,10.68
2023-05-22T15:48:47.880Z,13.25
2023-05-22T15:51:21.770Z,13.70
2023-05-22T15:53:55.656Z,12.82
2023-05-22T15:56:25.115Z,11.52
2023-05-22T15:58:54.912Z,13.63
2023-05-22T16:01:24.187Z,11.68
2023-05-22T16:03:53.441Z,10.02
2023-05-22T16:06:23.376Z,11.52
2023-05-22T16:08:53.335Z,10.18
2023-05-22T16:11:22.966Z,16.42
2023-05-22T16:13:51.730Z,17.05
2023-05-22T16:16:20.668Z,15.98
2023-05-22T16:18:51.966Z,15.40
2023-05-22T16:21:21.011Z,16.40
2023-05-22T16:23:49.597Z,15.57
2023-05-22T16:26:20.126Z,15.50
2023-05-22T16:28:48.492Z,12.65
2023-05-22T16:31:19.258Z,11.40
2023-05-22T16:33:47.788Z,18.38
2023-05-22T16:36:16.278Z,17.52
2023-05-22T16:38:45.037Z,15.75
2023-05-22T16:41:13.430Z,14.40
2023-05-22T16:43:44.256Z,14.35
2023-05-22T16:46:17.050Z,14.20
2023-05-22T16:48:45.658Z,17.92
2023-05-22T16:51:14.674Z,12.05
2023-05-22T16:53:44.439Z,12.95
2023-05-22T16:56:16.974Z,12.35
2023-05-22T16:58:46.898Z,16.15
2023-05-22T17:01:15.714Z,12.82
2023-05-22T17:03:45.296Z,14.02
2023-05-22T17:06:13.934Z,14.57
2023-05-22T17:08:42.829Z,11.25
2023-05-22T17:11:11.721Z,15.00
2023-05-22T17:13:40.064Z,10.98
2023-05-22T17:16:10.112Z,16.75
2023-05-22T17:18:38.786Z,18.35
2023-05-22T17:21:09.197Z,15.10
2023-05-22T17:23:38.866Z,18.67
2023-05-22T17:26:08.193Z,13.50
2023-05-22T17:28:36.655Z,12.10
2023-05-22T17:31:04.994Z,13.02
2023-05-22T17:33:36.225Z,16.75
2023-05-22T17:36:04.653Z,11.73
2023-05-22T17:38:33.215Z,12.48
2023-05-22T17:41:02.842Z,17.02
2023-05-22T17:43:35.293Z,15.63
2023-05-22T17:46:03.979Z,10.93
2023-05-22T17:48:32.957Z,15.27
2023-05-22T17:51:03.499Z,15.93
2023-05-22T17:53:34.895Z,14.98
2023-05-22T17:56:04.734Z,16.88
2023-05-22T17:58:33.259Z,12.63
2023-05-22T18:01:01.718Z,10.88
2023-05-22T18:03:30.306Z,11.07
2023-05-22T18:05:59.269Z,12.60
2023-05-22T18:08:29.815Z,16.90
2023-05-22T18:10:59.260Z,16.52
2023-05-22T18:13:27.956Z,14.00
2023-05-22T18:15:59.794Z,15.40
2023-05-22T18:18:28.683Z,12.75
2023-05-22T18:20:57.107Z,14.38
2023-05-22T18:23:25.930Z,14.32
2023-05-22T18:25:57.340Z,14.52
2023-05-22T18:28:28.161Z,14.65
2023-05-22T18:30:57.308Z,13.87
2023-05-22T18:33:26.618Z,12.43
2023-05-22T18:35:56.429Z,14.23
2023-05-22T18:38:25.618Z,13.68
2023-05-22T18:40:57.079Z,14.75
2023-05-22T18:43:28.359Z,18.08
2023-05-22T18:45:59.940Z,13.75
2023-05-22T18:48:31.044Z,13.95
2023-05-22T18:51:01.842Z,15.77
2023-05-22T18:53:31.588Z,15.52
2023-05-22T18:56:03.517Z,12.27
2023-05-22T18:58:32.955Z,12.15
2023-05-22T19:01:03.174Z,14.00
2023-05-22T19:03:35.346Z,17.77
2023-05-22T19:06:04.649Z,13.45
2023-05-22T19:08:38.787Z,13.57
2023-05-22T19:11:13.072Z,18.67
2023-05-22T19:13:44.977Z,12.32
2023-05-22T19:16:16.768Z,14.43
2023-05-22T19:18:48.123Z,15.07
2023-05-22T19:21:18.436Z,13.77
2023-05-22T19:23:48.626Z,18.00
2023-05-22T19:26:21.082Z,14.48
2023-05-22T19:28:49.874Z,15.30
2023-05-22T19:31:18.852Z,14.68
2023-05-22T19:33:48.690Z,17.00
2023-05-22T19:36:18.595Z,14.88
2023-05-22T19:38:53.507Z,14.18
2023-05-22T19:43:55.553Z,15.02
2023-05-22T19:46:25.350Z,16.73
2023-05-22T19:48:54.256Z,16.40
2023-05-22T19:51:30.270Z,14.00
2023-05-22T19:54:00.165Z,15.75
2023-05-22T19:56:31.787Z,14.07
2023-05-22T19:59:05.353Z,15.40
2023-05-22T20:04:07.921Z,15.70
2023-05-22T20:06:46.186Z,13.60
2023-05-22T20:09:18.076Z,14.27
2023-05-22T20:11:48.166Z,13.98
2023-05-22T20:14:17.571Z,15.82
2023-05-22T20:16:50.318Z,16.13
2023-05-22T20:19:19.151Z,13.52
2023-05-22T20:21:49.766Z,19.30
2023-05-22T20:24:22.106Z,15.93
2023-05-22T20:26:52.444Z,15.82
2023-05-22T20:29:21.224Z,15.68
2023-05-22T20:31:54.325Z,19.88
2023-05-22T20:34:23.696Z,14.20
2023-05-22T20:36:54.985Z,15.07
2023-05-22T20:39:23.815Z,14.38
2023-05-22T20:41:54.423Z,20.40
2023-05-22T20:44:25.056Z,16.75
2023-05-22T20:46:55.638Z,19.08
2023-05-22T20:49:26.506Z,17.58
2023-05-22T20:51:55.431Z,18.70
2023-05-22T20:54:25.598Z,16.40
2023-05-22T20:56:57.349Z,17.77
2023-05-22T20:59:26.343Z,19.25
2023-05-22T21:01:57.290Z,16.60
2023-05-22T21:04:27.506Z,15.37
2023-05-22T21:06:55.815Z,15.65
2023-05-22T21:09:27.705Z,16.23
2023-05-22T21:14:31.875Z,18.70
2023-05-22T21:17:01.900Z,18.60
2023-05-22T21:19:33.775Z,18.30
2023-05-22T21:22:02.103Z,14.23
2023-05-22T21:24:32.744Z,16.45
2023-05-22T21:27:02.803Z,18.23
2023-05-22T21:29:31.028Z,17.38
2023-05-22T21:31:59.750Z,14.20
2023-05-22T21:34:28.302Z,14.70
2023-05-22T21:36:56.824Z,15.50
2023-05-22T21:39:25.217Z,19.45
2023-05-22T21:41:53.712Z,14.63
2023-05-22T21:44:23.551Z,16.05
2023-05-22T21:46:52.096Z,15.43
2023-05-22T21:49:20.520Z,17.52
2023-05-22T21:51:49.003Z,16.83
2023-05-22T21:54:18.776Z,16.55
2023-05-22T21:56:47.464Z,14.73
2023-05-22T21:59:15.789Z,15.88
2023-05-22T22:01:46.027Z,17.33
2023-05-22T22:04:16.052Z,20.42
2023-05-22T22:06:44.380Z,17.10
2023-05-22T22:09:12.761Z,17.75
2023-05-22T22:11:41.675Z,17.02
2023-05-22T22:14:11.914Z,19.02
2023-05-22T22:16:41.356Z,17.48
2023-05-22T22:19:12.936Z,16.17
2023-05-22T22:21:48.203Z,17.13
2023-05-22T22:24:16.989Z,18.85
2023-05-22T22:26:47.989Z,18.98
2023-05-22T22:29:16.693Z,18.60
2023-05-22T22:31:45.482Z,16.38
2023-05-22T22:34:16.926Z,18.20
2023-05-22T22:36:45.578Z,18.42
2023-05-22T22:39:14.272Z,21.33
2023-05-22T22:41:43.917Z,18.27
2023-05-22T22:44:12.396Z,19.95
2023-05-22T22:46:41.054Z,17.17
2023-05-22T22:49:09.725Z,23.33
2023-05-22T22:51:39.456Z,17.52
2023-05-22T22:54:07.846Z,19.45
2023-05-22T22:56:37.361Z,20.13
2023-05-22T22:59:05.585Z,18.42
2023-05-22T23:01:34.078Z,19.00
2023-05-22T23:04:02.466Z,16.90
2023-05-22T23:06:33.049Z,18.33
2023-05-22T23:09:06.249Z,19.35
2023-05-22T23:11:37.872Z,26.48
2023-05-22T23:14:07.514Z,25.38
2023-05-22T23:16:38.041Z,21.45
2023-05-22T23:19:06.588Z,25.50
2023-05-22T23:21:36.131Z,25.15
2023-05-22T23:24:07.172Z,26.83
2023-05-22T23:26:35.830Z,30.63
2023-05-22T23:29:04.138Z,27.83
2023-05-22T23:31:33.846Z,29.88
2023-05-22T23:34:03.596Z,23.25
2023-05-22T23:36:33.837Z,27.13
2023-05-22T23:39:06.138Z,29.17
2023-05-22T23:41:35.783Z,31.10
2023-05-22T23:44:05.754Z,30.40
2023-05-22T23:46:34.099Z,24.98
2023-05-22T23:49:02.649Z,27.52
2023-05-22T23:51:31.290Z,22.08
2023-05-22T23:53:59.484Z,26.02
2023-05-22T23:56:29.227Z,24.65
2023-05-22T23:58:57.661Z,24.55
